sensor_id;sensor_type;location;lat;lon;timestamp;pressure;altitude;pressure_sealevel;temperature;humidity
52105;BME280;38103;42.776;23.112;2022-09-24T00:00:18;94288.41;;;5.79;81.55
52105;BME280;38103;42.776;23.112;2022-09-24T00:02:43;94299.34;;;5.89;80.98
52105;BME280;38103;42.776;23.112;2022-09-24T00:05:09;94302.94;;;5.88;81.03
52105;BME280;38103;42.776;23.112;2022-09-24T00:07:34;94295.66;;;5.77;81.21
52105;BME280;38103;42.776;23.112;2022-09-24T00:09:59;94295.50;;;5.50;82.77
52105;BME280;38103;42.776;23.112;2022-09-24T00:12:25;94291.00;;;5.36;83.66
52105;BME280;38103;42.776;23.112;2022-09-24T00:14:52;94290.97;;;5.30;84.12
52105;BME280;38103;42.776;23.112;2022-09-24T00:17:17;94288.22;;;5.45;83.49
52105;BME280;38103;42.776;23.112;2022-09-24T00:19:43;94289.06;;;5.52;82.67
52105;BME280;38103;42.776;23.112;2022-09-24T00:22:08;94290.72;;;5.53;82.23
52105;BME280;38103;42.776;23.112;2022-09-24T00:24:33;94283.66;;;5.54;82.46
52105;BME280;38103;42.776;23.112;2022-09-24T00:27:17;94286.59;;;5.44;83.11
52105;BME280;38103;42.776;23.112;2022-09-24T00:29:43;94280.88;;;5.27;83.90
52105;BME280;38103;42.776;23.112;2022-09-24T00:32:08;94287.06;;;5.19;84.70
52105;BME280;38103;42.776;23.112;2022-09-24T00:34:34;94289.34;;;5.29;84.74
52105;BME280;38103;42.776;23.112;2022-09-24T00:37:00;94271.78;;;5.22;85.17
52105;BME280;38103;42.776;23.112;2022-09-24T00:39:25;94282.34;;;5.36;84.56
52105;BME280;38103;42.776;23.112;2022-09-24T00:41:51;94277.13;;;5.43;84.35
52105;BME280;38103;42.776;23.112;2022-09-24T00:47:31;94268.78;;;5.25;84.23
52105;BME280;38103;42.776;23.112;2022-09-24T00:50:07;94156.28;;;4.53;84.23
52105;BME280;38103;42.776;23.112;2022-09-24T00:52:38;94264.53;;;5.24;84.10
52105;BME280;38103;42.776;23.112;2022-09-24T00:55:05;94269.50;;;5.12;84.29
52105;BME280;38103;42.776;23.112;2022-09-24T00:57:31;94267.84;;;5.05;85.23
52105;BME280;38103;42.776;23.112;2022-09-24T00:59:57;94269.03;;;5.02;85.28
52105;BME280;38103;42.776;23.112;2022-09-24T01:02:23;94268.25;;;5.08;84.82
52105;BME280;38103;42.776;23.112;2022-09-24T01:04:48;94267.75;;;5.20;84.09
52105;BME280;38103;42.776;23.112;2022-09-24T01:07:14;94261.44;;;5.14;84.24
52105;BME280;38103;42.776;23.112;2022-09-24T01:09:39;94256.41;;;5.12;84.10
52105;BME280;38103;42.776;23.112;2022-09-24T01:23:58;94263.56;;;4.68;84.47
52105;BME280;38103;42.776;23.112;2022-09-24T01:31:35;94266.31;;;4.60;84.83
52105;BME280;38103;42.776;23.112;2022-09-24T01:34:03;94266.69;;;4.56;84.67
52105;BME280;38103;42.776;23.112;2022-09-24T01:36:32;94245.63;;;4.43;84.72
52105;BME280;38103;42.776;23.112;2022-09-24T01:39:00;94287.25;;;4.60;84.47
52105;BME280;38103;42.776;23.112;2022-09-24T01:41:26;94274.53;;;4.56;84.35
52105;BME280;38103;42.776;23.112;2022-09-24T01:43:52;94282.34;;;4.50;84.36
52105;BME280;38103;42.776;23.112;2022-09-24T01:46:19;94274.50;;;4.50;84.43
52105;BME280;38103;42.776;23.112;2022-09-24T01:48:45;94288.41;;;4.50;84.65
52105;BME280;38103;42.776;23.112;2022-09-24T01:51:15;94284.34;;;4.47;84.27
52105;BME280;38103;42.776;23.112;2022-09-24T01:56:38;94284.25;;;4.41;83.14
52105;BME280;38103;42.776;23.112;2022-09-24T01:59:22;94289.13;;;4.22;84.15
52105;BME280;38103;42.776;23.112;2022-09-24T02:01:57;94291.66;;;4.15;84.88
52105;BME280;38103;42.776;23.112;2022-09-24T02:04:26;94270.41;;;3.81;85.67
52105;BME280;38103;42.776;23.112;2022-09-24T02:12:04;94280.38;;;3.55;87.77
52105;BME280;38103;42.776;23.112;2022-09-24T02:14:36;94298.75;;;3.62;89.17
52105;BME280;38103;42.776;23.112;2022-09-24T02:17:05;94302.06;;;3.71;89.86
52105;BME280;38103;42.776;23.112;2022-09-24T02:19:34;94309.81;;;3.64;90.33
52105;BME280;38103;42.776;23.112;2022-09-24T02:22:00;94303.63;;;3.65;90.42
52105;BME280;38103;42.776;23.112;2022-09-24T02:24:42;94309.72;;;3.73;90.45
52105;BME280;38103;42.776;23.112;2022-09-24T02:27:09;94304.16;;;3.76;89.62
52105;BME280;38103;42.776;23.112;2022-09-24T02:29:34;94272.06;;;3.52;90.43
52105;BME280;38103;42.776;23.112;2022-09-24T02:32:01;94172.09;;;2.97;88.85
52105;BME280;38103;42.776;23.112;2022-09-24T02:34:34;94313.84;;;3.82;88.55
52105;BME280;38103;42.776;23.112;2022-09-24T02:37:10;94319.09;;;3.82;88.64
52105;BME280;38103;42.776;23.112;2022-09-24T02:39:36;94292.91;;;3.60;87.94
52105;BME280;38103;42.776;23.112;2022-09-24T02:42:05;94321.09;;;3.80;88.10
52105;BME280;38103;42.776;23.112;2022-09-24T02:44:33;94323.44;;;3.75;88.40
52105;BME280;38103;42.776;23.112;2022-09-24T02:47:00;94319.31;;;3.65;89.20
52105;BME280;38103;42.776;23.112;2022-09-24T02:49:26;94329.22;;;3.55;89.61
52105;BME280;38103;42.776;23.112;2022-09-24T02:51:51;94324.72;;;3.49;89.53
52105;BME280;38103;42.776;23.112;2022-09-24T02:54:17;94324.44;;;3.28;90.69
52105;BME280;38103;42.776;23.112;2022-09-24T02:56:42;94332.00;;;3.23;92.48
52105;BME280;38103;42.776;23.112;2022-09-24T02:59:08;94266.31;;;2.81;92.22
52105;BME280;38103;42.776;23.112;2022-09-24T03:01:34;94331.28;;;3.14;93.62
52105;BME280;38103;42.776;23.112;2022-09-24T03:04:00;94332.13;;;3.30;91.97
52105;BME280;38103;42.776;23.112;2022-09-24T03:06:25;94331.38;;;3.36;91.37
52105;BME280;38103;42.776;23.112;2022-09-24T03:08:51;94327.06;;;3.43;90.70
52105;BME280;38103;42.776;23.112;2022-09-24T03:11:20;94332.38;;;3.50;89.82
52105;BME280;38103;42.776;23.112;2022-09-24T03:13:47;94326.00;;;3.53;89.95
52105;BME280;38103;42.776;23.112;2022-09-24T03:16:12;94332.38;;;3.50;89.57
52105;BME280;38103;42.776;23.112;2022-09-24T03:18:38;94344.81;;;3.48;89.89
52105;BME280;38103;42.776;23.112;2022-09-24T03:21:06;94328.69;;;3.44;88.55
52105;BME280;38103;42.776;23.112;2022-09-24T03:23:33;94237.44;;;2.59;88.54
52105;BME280;38103;42.776;23.112;2022-09-24T03:25:59;94333.53;;;3.17;89.86
52105;BME280;38103;42.776;23.112;2022-09-24T03:28:25;94334.25;;;3.11;90.20
52105;BME280;38103;42.776;23.112;2022-09-24T03:30:51;94338.00;;;2.93;91.58
52105;BME280;38103;42.776;23.112;2022-09-24T03:33:32;94342.19;;;2.79;92.14
52105;BME280;38103;42.776;23.112;2022-09-24T03:36:14;94338.84;;;2.70;92.79
52105;BME280;38103;42.776;23.112;2022-09-24T03:38:42;94336.88;;;2.49;94.56
52105;BME280;38103;42.776;23.112;2022-09-24T03:41:09;94350.69;;;2.58;95.24
52105;BME280;38103;42.776;23.112;2022-09-24T03:43:35;94348.22;;;2.79;91.80
52105;BME280;38103;42.776;23.112;2022-09-24T03:46:02;94350.16;;;2.86;90.66
52105;BME280;38103;42.776;23.112;2022-09-24T03:48:27;94349.56;;;2.75;90.51
52105;BME280;38103;42.776;23.112;2022-09-24T03:50:54;94347.38;;;2.64;91.18
52105;BME280;38103;42.776;23.112;2022-09-24T03:53:20;94348.72;;;2.60;91.21
52105;BME280;38103;42.776;23.112;2022-09-24T03:55:52;94342.63;;;2.44;92.67
52105;BME280;38103;42.776;23.112;2022-09-24T03:58:18;94352.06;;;2.45;93.79
52105;BME280;38103;42.776;23.112;2022-09-24T04:00:43;94350.78;;;2.41;95.20
52105;BME280;38103;42.776;23.112;2022-09-24T04:03:09;94353.69;;;2.46;96.13
52105;BME280;38103;42.776;23.112;2022-09-24T04:05:35;94349.06;;;2.56;96.47
52105;BME280;38103;42.776;23.112;2022-09-24T04:08:00;94345.47;;;2.58;97.27
52105;BME280;38103;42.776;23.112;2022-09-24T04:10:26;94347.06;;;2.59;97.50
52105;BME280;38103;42.776;23.112;2022-09-24T04:12:52;94334.50;;;2.62;96.32
52105;BME280;38103;42.776;23.112;2022-09-24T04:15:18;94344.16;;;2.77;95.66
52105;BME280;38103;42.776;23.112;2022-09-24T04:17:50;94350.84;;;2.79;95.12
52105;BME280;38103;42.776;23.112;2022-09-24T04:20:17;94365.06;;;2.77;95.24
52105;BME280;38103;42.776;23.112;2022-09-24T04:22:45;94362.97;;;2.72;95.38
52105;BME280;38103;42.776;23.112;2022-09-24T04:25:10;94362.50;;;2.68;95.48
52105;BME280;38103;42.776;23.112;2022-09-24T04:27:36;94363.03;;;2.64;94.45
52105;BME280;38103;42.776;23.112;2022-09-24T04:30:01;94363.78;;;2.49;94.30
52105;BME280;38103;42.776;23.112;2022-09-24T04:32:27;94368.09;;;2.42;94.46
52105;BME280;38103;42.776;23.112;2022-09-24T04:34:52;94371.56;;;2.34;95.72
52105;BME280;38103;42.776;23.112;2022-09-24T04:37:17;94373.34;;;2.33;96.09
52105;BME280;38103;42.776;23.112;2022-09-24T04:39:43;94372.63;;;2.40;96.49
52105;BME280;38103;42.776;23.112;2022-09-24T04:42:08;94376.53;;;2.44;97.30
52105;BME280;38103;42.776;23.112;2022-09-24T04:44:33;94372.16;;;2.68;97.36
52105;BME280;38103;42.776;23.112;2022-09-24T04:46:59;94368.88;;;2.89;96.67
52105;BME280;38103;42.776;23.112;2022-09-24T04:49:27;94376.13;;;3.03;95.74
52105;BME280;38103;42.776;23.112;2022-09-24T04:51:53;94375.88;;;3.28;94.52
52105;BME280;38103;42.776;23.112;2022-09-24T04:54:22;94381.25;;;3.50;94.37
52105;BME280;38103;42.776;23.112;2022-09-24T04:56:48;94372.13;;;3.76;93.08
52105;BME280;38103;42.776;23.112;2022-09-24T04:59:13;94371.22;;;3.99;92.79
52105;BME280;38103;42.776;23.112;2022-09-24T05:01:38;94376.69;;;4.19;92.14
52105;BME280;38103;42.776;23.112;2022-09-24T05:04:04;94375.53;;;4.44;91.56
52105;BME280;38103;42.776;23.112;2022-09-24T05:06:29;94373.03;;;4.79;90.98
52105;BME280;38103;42.776;23.112;2022-09-24T05:08:54;94372.59;;;5.20;90.27
52105;BME280;38103;42.776;23.112;2022-09-24T05:11:20;94370.66;;;5.64;88.28
52105;BME280;38103;42.776;23.112;2022-09-24T05:13:45;94371.72;;;6.12;85.80
52105;BME280;38103;42.776;23.112;2022-09-24T05:16:11;94379.94;;;6.58;83.72
52105;BME280;38103;42.776;23.112;2022-09-24T05:18:36;94368.69;;;7.06;80.22
52105;BME280;38103;42.776;23.112;2022-09-24T05:21:01;94370.28;;;7.47;77.96
52105;BME280;38103;42.776;23.112;2022-09-24T05:23:27;94372.22;;;7.86;77.79
52105;BME280;38103;42.776;23.112;2022-09-24T05:25:52;94377.38;;;8.27;74.79
52105;BME280;38103;42.776;23.112;2022-09-24T05:28:36;94379.22;;;8.73;73.13
52105;BME280;38103;42.776;23.112;2022-09-24T05:31:02;94373.56;;;9.01;70.87
52105;BME280;38103;42.776;23.112;2022-09-24T05:33:27;94378.13;;;9.13;69.69
52105;BME280;38103;42.776;23.112;2022-09-24T05:35:54;94254.13;;;8.36;69.34
52105;BME280;38103;42.776;23.112;2022-09-24T05:38:19;94383.84;;;9.61;67.32
52105;BME280;38103;42.776;23.112;2022-09-24T05:40:44;94380.66;;;9.97;65.82
52105;BME280;38103;42.776;23.112;2022-09-24T05:43:13;94382.25;;;10.35;64.77
52105;BME280;38103;42.776;23.112;2022-09-24T05:45:39;94282.84;;;9.84;65.39
52105;BME280;38103;42.776;23.112;2022-09-24T05:48:06;94391.03;;;10.10;64.98
52105;BME280;38103;42.776;23.112;2022-09-24T05:50:31;94386.91;;;9.77;65.33
52105;BME280;38103;42.776;23.112;2022-09-24T05:53:02;94392.06;;;9.20;67.98
52105;BME280;38103;42.776;23.112;2022-09-24T05:55:28;94399.66;;;9.10;69.33
52105;BME280;38103;42.776;23.112;2022-09-24T05:57:54;94395.34;;;9.41;69.30
52105;BME280;38103;42.776;23.112;2022-09-24T06:00:19;94404.63;;;8.99;70.30
52105;BME280;38103;42.776;23.112;2022-09-24T06:02:44;94404.63;;;8.99;69.11
52105;BME280;38103;42.776;23.112;2022-09-24T06:05:10;94398.53;;;8.99;69.76
52105;BME280;38103;42.776;23.112;2022-09-24T06:07:36;94405.31;;;9.13;70.98
52105;BME280;38103;42.776;23.112;2022-09-24T06:10:03;94410.34;;;9.47;70.43
52105;BME280;38103;42.776;23.112;2022-09-24T06:12:29;94404.28;;;8.89;73.02
52105;BME280;38103;42.776;23.112;2022-09-24T06:14:56;94409.66;;;9.01;73.27
52105;BME280;38103;42.776;23.112;2022-09-24T06:17:21;94404.09;;;9.16;73.90
52105;BME280;38103;42.776;23.112;2022-09-24T06:19:47;94390.53;;;9.38;72.25
52105;BME280;38103;42.776;23.112;2022-09-24T06:22:13;94408.09;;;8.93;73.39
52105;BME280;38103;42.776;23.112;2022-09-24T06:24:39;94419.75;;;9.62;72.50
52105;BME280;38103;42.776;23.112;2022-09-24T06:27:05;94411.84;;;9.36;71.63
52105;BME280;38103;42.776;23.112;2022-09-24T06:29:30;94411.66;;;8.73;73.16
52105;BME280;38103;42.776;23.112;2022-09-24T06:31:56;94416.16;;;8.66;73.93
52105;BME280;38103;42.776;23.112;2022-09-24T06:34:21;94415.25;;;8.86;74.73
52105;BME280;38103;42.776;23.112;2022-09-24T06:36:47;94418.22;;;8.96;73.51
52105;BME280;38103;42.776;23.112;2022-09-24T06:39:12;94410.13;;;9.23;73.91
52105;BME280;38103;42.776;23.112;2022-09-24T06:41:38;94409.41;;;10.05;72.09
52105;BME280;38103;42.776;23.112;2022-09-24T06:44:03;94403.06;;;10.63;69.66
52105;BME280;38103;42.776;23.112;2022-09-24T06:46:28;94409.44;;;11.04;66.29
52105;BME280;38103;42.776;23.112;2022-09-24T06:48:54;94405.94;;;10.92;65.44
52105;BME280;38103;42.776;23.112;2022-09-24T06:51:20;94411.78;;;11.13;65.00
52105;BME280;38103;42.776;23.112;2022-09-24T06:53:45;94391.16;;;11.03;65.35
52105;BME280;38103;42.776;23.112;2022-09-24T06:56:11;94399.16;;;11.39;65.08
52105;BME280;38103;42.776;23.112;2022-09-24T06:58:36;94408.72;;;11.76;62.68
52105;BME280;38103;42.776;23.112;2022-09-24T07:01:02;94420.19;;;10.91;63.36
52105;BME280;38103;42.776;23.112;2022-09-24T07:03:30;94416.59;;;11.16;63.52
52105;BME280;38103;42.776;23.112;2022-09-24T07:05:59;94415.59;;;10.86;63.99
52105;BME280;38103;42.776;23.112;2022-09-24T07:08:25;94366.53;;;10.41;65.11
52105;BME280;38103;42.776;23.112;2022-09-24T07:10:50;94419.75;;;10.94;64.89
52105;BME280;38103;42.776;23.112;2022-09-24T07:13:18;94413.56;;;11.00;62.64
52105;BME280;38103;42.776;23.112;2022-09-24T07:15:45;94418.22;;;11.17;63.95
52105;BME280;38103;42.776;23.112;2022-09-24T07:18:11;94422.34;;;11.13;63.07
52105;BME280;38103;42.776;23.112;2022-09-24T07:20:37;94419.63;;;11.32;63.58
52105;BME280;38103;42.776;23.112;2022-09-24T07:23:07;94422.66;;;11.71;62.67
52105;BME280;38103;42.776;23.112;2022-09-24T07:25:33;94421.53;;;11.67;61.98
52105;BME280;38103;42.776;23.112;2022-09-24T07:28:03;94414.72;;;11.59;62.31
52105;BME280;38103;42.776;23.112;2022-09-24T07:30:29;94411.84;;;11.85;62.39
52105;BME280;38103;42.776;23.112;2022-09-24T07:32:55;94418.28;;;11.53;62.99
52105;BME280;38103;42.776;23.112;2022-09-24T07:35:21;94413.34;;;11.69;62.02
52105;BME280;38103;42.776;23.112;2022-09-24T07:37:47;94417.13;;;12.09;61.73
52105;BME280;38103;42.776;23.112;2022-09-24T07:40:13;94413.00;;;11.89;60.92
52105;BME280;38103;42.776;23.112;2022-09-24T07:42:45;94414.56;;;12.38;59.72
52105;BME280;38103;42.776;23.112;2022-09-24T07:45:11;94397.53;;;12.63;59.82
52105;BME280;38103;42.776;23.112;2022-09-24T07:47:37;94352.16;;;11.94;60.35
52105;BME280;38103;42.776;23.112;2022-09-24T07:50:04;94403.00;;;12.45;59.73
52105;BME280;38103;42.776;23.112;2022-09-24T07:52:29;94408.63;;;12.90;58.65
52105;BME280;38103;42.776;23.112;2022-09-24T07:54:54;94409.72;;;12.77;58.02
52105;BME280;38103;42.776;23.112;2022-09-24T07:57:20;94400.66;;;12.90;59.49
52105;BME280;38103;42.776;23.112;2022-09-24T07:59:45;94409.28;;;12.97;58.35
52105;BME280;38103;42.776;23.112;2022-09-24T08:02:15;94410.44;;;13.01;58.16
52105;BME280;38103;42.776;23.112;2022-09-24T08:04:42;94402.06;;;13.10;58.59
52105;BME280;38103;42.776;23.112;2022-09-24T08:07:07;94399.72;;;12.96;59.07
52105;BME280;38103;42.776;23.112;2022-09-24T08:09:33;94407.09;;;13.23;56.49
52105;BME280;38103;42.776;23.112;2022-09-24T08:11:59;94410.84;;;12.81;57.98
52105;BME280;38103;42.776;23.112;2022-09-24T08:14:24;94405.59;;;12.98;57.29
52105;BME280;38103;42.776;23.112;2022-09-24T08:16:50;94406.06;;;13.41;57.35
52105;BME280;38103;42.776;23.112;2022-09-24T08:19:15;94406.47;;;13.85;56.71
52105;BME280;38103;42.776;23.112;2022-09-24T08:21:41;94399.16;;;13.58;55.64
52105;BME280;38103;42.776;23.112;2022-09-24T08:24:06;94399.88;;;13.70;55.11
52105;BME280;38103;42.776;23.112;2022-09-24T08:26:32;94391.28;;;14.03;55.35
52105;BME280;38103;42.776;23.112;2022-09-24T08:28:57;94386.78;;;14.48;57.34
52105;BME280;38103;42.776;23.112;2022-09-24T08:31:22;94387.59;;;14.49;51.40
52105;BME280;38103;42.776;23.112;2022-09-24T08:33:48;94390.28;;;14.99;49.29
52105;BME280;38103;42.776;23.112;2022-09-24T08:36:15;94392.75;;;15.39;52.03
52105;BME280;38103;42.776;23.112;2022-09-24T08:38:41;94384.78;;;15.82;49.23
52105;BME280;38103;42.776;23.112;2022-09-24T08:46:48;94374.59;;;16.82;47.83
52105;BME280;38103;42.776;23.112;2022-09-24T08:49:44;94371.69;;;16.99;43.83
52105;BME280;38103;42.776;23.112;2022-09-24T08:52:28;94363.13;;;16.97;38.23
52105;BME280;38103;42.776;23.112;2022-09-24T08:54:58;94360.47;;;17.02;39.73
52105;BME280;38103;42.776;23.112;2022-09-24T08:57:27;94371.66;;;16.89;36.80
52105;BME280;38103;42.776;23.112;2022-09-24T08:59:52;94356.59;;;16.46;36.88
52105;BME280;38103;42.776;23.112;2022-09-24T09:05:49;94362.06;;;16.82;39.96
52105;BME280;38103;42.776;23.112;2022-09-24T09:08:32;94364.75;;;17.03;39.61
52105;BME280;38103;42.776;23.112;2022-09-24T09:11:01;94329.19;;;16.82;37.84
52105;BME280;38103;42.776;23.112;2022-09-24T09:13:41;94355.13;;;16.92;38.44
52105;BME280;38103;42.776;23.112;2022-09-24T09:16:24;94359.44;;;17.19;41.51
52105;BME280;38103;42.776;23.112;2022-09-24T09:18:52;94360.50;;;17.13;38.03
52105;BME280;38103;42.776;23.112;2022-09-24T09:21:47;94365.00;;;16.91;40.13
52105;BME280;38103;42.776;23.112;2022-09-24T09:24:42;94350.84;;;16.96;38.38
52105;BME280;38103;42.776;23.112;2022-09-24T09:27:10;94315.50;;;16.52;38.04
52105;BME280;38103;42.776;23.112;2022-09-24T09:29:36;94355.13;;;17.02;37.61
52105;BME280;38103;42.776;23.112;2022-09-24T09:32:48;94342.56;;;16.82;40.21
52105;BME280;38103;42.776;23.112;2022-09-24T09:35:42;94338.00;;;16.77;38.86
52105;BME280;38103;42.776;23.112;2022-09-24T09:38:28;94350.31;;;16.99;41.36
52105;BME280;38103;42.776;23.112;2022-09-24T09:41:19;94339.09;;;17.02;37.18
52105;BME280;38103;42.776;23.112;2022-09-24T09:43:47;94328.16;;;17.14;37.89
52105;BME280;38103;42.776;23.112;2022-09-24T09:46:26;94328.47;;;17.23;39.45
52105;BME280;38103;42.776;23.112;2022-09-24T09:48:59;94325.50;;;17.35;39.57
52105;BME280;38103;42.776;23.112;2022-09-24T09:51:32;94331.13;;;17.28;37.04
52105;BME280;38103;42.776;23.112;2022-09-24T09:54:01;94328.47;;;17.34;39.65
52105;BME280;38103;42.776;23.112;2022-09-24T09:56:32;94295.31;;;17.19;38.64
52105;BME280;38103;42.776;23.112;2022-09-24T09:59:06;94320.66;;;17.11;35.81
52105;BME280;38103;42.776;23.112;2022-09-24T10:01:34;94312.94;;;17.09;40.45
52105;BME280;38103;42.776;23.112;2022-09-24T10:04:02;94308.69;;;17.24;37.17
52105;BME280;38103;42.776;23.112;2022-09-24T10:06:34;94303.31;;;17.45;39.06
52105;BME280;38103;42.776;23.112;2022-09-24T10:09:15;94287.00;;;17.62;40.42
52105;BME280;38103;42.776;23.112;2022-09-24T10:11:41;94308.06;;;17.85;39.79
52105;BME280;38103;42.776;23.112;2022-09-24T10:14:15;94306.47;;;17.79;37.32
52105;BME280;38103;42.776;23.112;2022-09-24T10:16:51;94304.09;;;17.56;37.23
52105;BME280;38103;42.776;23.112;2022-09-24T10:19:25;94309.16;;;17.63;36.14
52105;BME280;38103;42.776;23.112;2022-09-24T10:21:54;94302.75;;;17.69;37.23
52105;BME280;38103;42.776;23.112;2022-09-24T10:24:23;94301.72;;;17.55;37.89
52105;BME280;38103;42.776;23.112;2022-09-24T10:26:49;94280.06;;;16.98;36.60
52105;BME280;38103;42.776;23.112;2022-09-24T10:29:22;94303.59;;;17.07;36.58
52105;BME280;38103;42.776;23.112;2022-09-24T10:32:17;94302.81;;;17.17;36.09
52105;BME280;38103;42.776;23.112;2022-09-24T10:34:56;94300.41;;;17.26;38.90
52105;BME280;38103;42.776;23.112;2022-09-24T10:37:22;94298.78;;;17.46;39.50
52105;BME280;38103;42.776;23.112;2022-09-24T10:40:12;94297.16;;;17.45;36.44
52105;BME280;38103;42.776;23.112;2022-09-24T10:42:39;94275.56;;;17.20;35.43
52105;BME280;38103;42.776;23.112;2022-09-24T10:45:09;94305.44;;;17.64;38.70
52105;BME280;38103;42.776;23.112;2022-09-24T10:50:39;94302.19;;;17.78;39.08
52105;BME280;38103;42.776;23.112;2022-09-24T10:53:35;94311.81;;;17.79;35.76
52105;BME280;38103;42.776;23.112;2022-09-24T10:56:20;94298.94;;;17.91;38.01
52105;BME280;38103;42.776;23.112;2022-09-24T11:18:07;94256.88;;;18.63;36.29
52105;BME280;38103;42.776;23.112;2022-09-24T11:20:46;94254.13;;;18.74;36.04
52105;BME280;38103;42.776;23.112;2022-09-24T11:23:33;94265.41;;;18.71;36.66
52105;BME280;38103;42.776;23.112;2022-09-24T11:26:26;94256.25;;;18.77;33.99
52105;BME280;38103;42.776;23.112;2022-09-24T11:37:34;94249.25;;;18.81;34.11
52105;BME280;38103;42.776;23.112;2022-09-24T11:58:17;94228.41;;;18.78;35.50
52105;BME280;38103;42.776;23.112;2022-09-24T12:00:52;94237.88;;;18.65;35.18
52105;BME280;38103;42.776;23.112;2022-09-24T12:06:19;94235.38;;;18.74;34.23
52105;BME280;38103;42.776;23.112;2022-09-24T12:09:16;94222.72;;;18.85;34.53
52105;BME280;38103;42.776;23.112;2022-09-24T12:11:48;94227.44;;;18.98;37.11
52105;BME280;38103;42.776;23.112;2022-09-24T12:14:25;94191.44;;;18.75;36.21
52105;BME280;38103;42.776;23.112;2022-09-24T12:16:58;94235.72;;;18.97;33.44
52105;BME280;38103;42.776;23.112;2022-09-24T12:19:33;94226.75;;;19.12;32.63
52105;BME280;38103;42.776;23.112;2022-09-24T12:22:02;94232.06;;;19.17;37.11
52105;BME280;38103;42.776;23.112;2022-09-24T12:24:39;94238.69;;;19.30;35.43
52105;BME280;38103;42.776;23.112;2022-09-24T12:27:16;94235.50;;;19.28;34.00
52105;BME280;38103;42.776;23.112;2022-09-24T12:46:47;94221.63;;;19.16;33.85
52105;BME280;38103;42.776;23.112;2022-09-24T12:51:58;94226.97;;;19.21;33.82
52105;BME280;38103;42.776;23.112;2022-09-24T12:54:44;94213.09;;;19.14;32.07
52105;BME280;38103;42.776;23.112;2022-09-24T12:57:21;94213.66;;;19.10;34.17
52105;BME280;38103;42.776;23.112;2022-09-24T12:59:59;94212.53;;;19.17;33.33
52105;BME280;38103;42.776;23.112;2022-09-24T13:02:28;94213.59;;;19.21;33.53
52105;BME280;38103;42.776;23.112;2022-09-24T13:07:36;94200.19;;;19.21;32.24
52105;BME280;38103;42.776;23.112;2022-09-24T13:12:39;94192.59;;;18.98;33.01
52105;BME280;38103;42.776;23.112;2022-09-24T13:15:07;94198.06;;;19.18;34.76
52105;BME280;38103;42.776;23.112;2022-09-24T13:17:35;94201.63;;;19.38;34.37
52105;BME280;38103;42.776;23.112;2022-09-24T13:20:23;94204.25;;;19.43;33.85
52105;BME280;38103;42.776;23.112;2022-09-24T13:28:27;94190.28;;;19.46;32.75
52105;BME280;38103;42.776;23.112;2022-09-24T13:33:48;94188.84;;;19.29;32.12
52105;BME280;38103;42.776;23.112;2022-09-24T13:36:17;94186.84;;;19.10;31.33
52105;BME280;38103;42.776;23.112;2022-09-24T13:44:03;94177.84;;;19.31;34.53
52105;BME280;38103;42.776;23.112;2022-09-24T13:46:33;94170.31;;;19.33;35.42
52105;BME280;38103;42.776;23.112;2022-09-24T13:49:02;94144.72;;;19.22;33.56
52105;BME280;38103;42.776;23.112;2022-09-24T13:51:34;94176.91;;;19.41;33.98
52105;BME280;38103;42.776;23.112;2022-09-24T13:54:16;94170.59;;;19.31;33.47
52105;BME280;38103;42.776;23.112;2022-09-24T13:56:56;94166.94;;;19.22;33.24
52105;BME280;38103;42.776;23.112;2022-09-24T13:59:23;94159.97;;;19.21;32.84
52105;BME280;38103;42.776;23.112;2022-09-24T14:01:48;94152.06;;;19.05;35.16
52105;BME280;38103;42.776;23.112;2022-09-24T14:04:19;94170.78;;;19.10;36.00
52105;BME280;38103;42.776;23.112;2022-09-24T14:06:54;94151.56;;;19.03;35.75
52105;BME280;38103;42.776;23.112;2022-09-24T14:11:55;94169.28;;;18.99;36.52
52105;BME280;38103;42.776;23.112;2022-09-24T14:14:24;94171.34;;;19.07;37.99
52105;BME280;38103;42.776;23.112;2022-09-24T14:16:51;94154.56;;;18.96;40.25
52105;BME280;38103;42.776;23.112;2022-09-24T14:19:19;94155.19;;;18.88;39.16
52105;BME280;38103;42.776;23.112;2022-09-24T14:21:52;94161.41;;;18.83;38.68
52105;BME280;38103;42.776;23.112;2022-09-24T14:24:29;94163.66;;;18.71;39.80
52105;BME280;38103;42.776;23.112;2022-09-24T14:27:22;94162.59;;;18.67;39.91
52105;BME280;38103;42.776;23.112;2022-09-24T14:30:07;94170.75;;;18.51;40.93
52105;BME280;38103;42.776;23.112;2022-09-24T14:32:37;94169.16;;;18.50;41.59
52105;BME280;38103;42.776;23.112;2022-09-24T14:35:20;94167.41;;;18.35;40.79
52105;BME280;38103;42.776;23.112;2022-09-24T14:37:57;94170.88;;;18.30;39.84
52105;BME280;38103;42.776;23.112;2022-09-24T14:40:24;94170.63;;;18.31;39.77
52105;BME280;38103;42.776;23.112;2022-09-24T14:42:56;94172.56;;;18.20;39.92
52105;BME280;38103;42.776;23.112;2022-09-24T14:45:35;94177.13;;;18.20;41.49
52105;BME280;38103;42.776;23.112;2022-09-24T14:48:34;94175.22;;;18.26;41.25
52105;BME280;38103;42.776;23.112;2022-09-24T14:51:00;94170.16;;;18.19;40.30
52105;BME280;38103;42.776;23.112;2022-09-24T14:53:31;94177.41;;;18.13;40.40
52105;BME280;38103;42.776;23.112;2022-09-24T14:58:33;94183.84;;;18.07;39.57
52105;BME280;38103;42.776;23.112;2022-09-24T15:01:04;94184.97;;;18.01;40.48
52105;BME280;38103;42.776;23.112;2022-09-24T15:03:38;94182.59;;;17.89;39.39
52105;BME280;38103;42.776;23.112;2022-09-24T15:06:12;94176.22;;;17.84;39.75
52105;BME280;38103;42.776;23.112;2022-09-24T15:08:40;94171.22;;;17.67;39.45
52105;BME280;38103;42.776;23.112;2022-09-24T15:11:06;94187.22;;;17.78;39.60
52105;BME280;38103;42.776;23.112;2022-09-24T15:13:38;94181.34;;;17.75;40.89
52105;BME280;38103;42.776;23.112;2022-09-24T15:16:26;94185.69;;;17.56;40.23
52105;BME280;38103;42.776;23.112;2022-09-24T15:19:14;94187.84;;;17.53;39.53
52105;BME280;38103;42.776;23.112;2022-09-24T15:21:42;94141.13;;;17.30;41.75